Airfield :
LOGIN :

Register | Disclaimer

   EN    FR    IT 

 










Legend :    VFR   Marginal VFR   IFR   Intensive IFR   Very Intensive IFR
Visi :
Ceiling :
>= 8 km
>= 3000ft
5 to 8 km
1000 to 3000 ft
1500m to 5 km
500 to 1000 ft
800 to 1500m
200 to 500 ft
< 800m
< 200 ft
Symbols :   Thunderstorms  Fog  Heavy snow  Heavy precipitations  Wind > 20 kt
SIGMETs :     Misc.  Thunderstorms  Icing  Turbulence  Mountain Waves  Volcanic Ashes






- Airport Elevation : 1363 ft


ETIC - Grafenwohr Army Air Field

METAR N/A
TAF TAF ETIC
Valid from the 04 at 18:00 until the 06 at 00:00 UTC


041800Z 0418/0524 VRB06KT 8000 BR BKN120 QNH2924INS
BECMG 0502/0503 VRB03KT 8000 BR SCT010 BKN015 OVC030 QNH2928INS
TEMPO 0506/0509 24012KT 6000 -RASN BR BKN010
BECMG 0511/0512 03006KT 9999 NSW BKN010 QNH2945INS
TEMPO 0514/0518 6000 -RASN BKN008 TX03/0514Z TNM02/0502Z LAST NO AMDS AFT 0521 NEXT 0702



MET'MAP, your aeronautical weather chart ! - Copyright ORBIFLY December 2007 - Disclaimer

ORBIFLY MET'MAP TEAM :

Programming & Development : Alexandra Zaïnal
Concept & original design : Baudouin d'Aumeries
Assistance for programming : Marc-Olivier Méhu
Technical & hardware support : Manuel Goepfert

Contact : metmap@orbifly.com




SOURCES & CREDITS :

   NOAA